Terminal Aerodrome Forecast
Issued by NWS Melbourne, FL

Home | Current Version | Previous Version | Text Only | Print | Product List | Glossary On
Versions: 1 2 3 4 5 6 7 8 9 10 11 12 13 14
000
FTUS42 KMLB 230500
TAFDAB
TAF
KDAB 230530Z 2306/2406 VRB02KT P6SM SKC
     FM231500 03006KT P6SM FEW035
     FM231800 07008KT P6SM FEW040=

USA.gov is the U.S. government's official web portal to all federal, state and local government web resources and services.